createdAt,value
2022-08-21T00:03:42.352Z,16.05
2022-08-21T00:13:19.818Z,16.12
2022-08-21T00:22:57.514Z,16.1
2022-08-21T00:32:34.244Z,15.92
2022-08-21T00:42:11.039Z,15.79
2022-08-21T00:51:47.960Z,15.76
2022-08-21T01:01:25.196Z,15.63
2022-08-21T01:11:02.170Z,15.43
2022-08-21T01:20:38.974Z,15.29
2022-08-21T01:30:15.643Z,15.06
2022-08-21T01:39:52.863Z,15.02
2022-08-21T01:49:29.722Z,15.02
2022-08-21T01:59:07.101Z,14.83
2022-08-21T02:08:44.494Z,14.64
2022-08-21T02:18:21.494Z,14.48
2022-08-21T02:27:58.608Z,14.43
2022-08-21T02:37:35.420Z,14.37
2022-08-21T02:47:12.577Z,14.26
2022-08-21T02:56:49.622Z,14.11
2022-08-21T03:06:26.318Z,14.11
2022-08-21T03:16:04.198Z,14.01
2022-08-21T03:25:41.187Z,14.05
2022-08-21T03:35:18.116Z,14.02
2022-08-21T03:44:55.254Z,13.75
2022-08-21T03:54:32.173Z,13.88
2022-08-21T04:04:09.773Z,13.77
2022-08-21T04:13:47.400Z,13.74
2022-08-21T04:23:24.968Z,13.92
2022-08-21T04:33:02.164Z,14.02
2022-08-21T04:42:39.460Z,14.13
2022-08-21T04:52:16.466Z,14.11
2022-08-21T05:01:54.113Z,14.18
2022-08-21T05:11:31.642Z,14.21
2022-08-21T05:21:09.188Z,14.32
2022-08-21T05:30:46.981Z,14.57
2022-08-21T05:40:24.692Z,14.82
2022-08-21T05:50:02.047Z,15.02
2022-08-21T05:59:39.675Z,15.06
2022-08-21T06:09:17.264Z,15.22
2022-08-21T06:18:56.670Z,15.32
2022-08-21T06:28:32.096Z,15.38
2022-08-21T06:38:10.256Z,15.64
2022-08-21T06:47:48.081Z,15.81
2022-08-21T06:57:25.807Z,16.11
2022-08-21T07:07:04.437Z,16.62
2022-08-21T07:16:43.533Z,16.99
2022-08-21T07:26:22.870Z,17.13
2022-08-21T07:36:00.886Z,18.07
2022-08-21T07:45:38.789Z,18.36
2022-08-21T07:55:16.165Z,18.73
2022-08-21T08:04:54.644Z,18.78
2022-08-21T08:14:31.378Z,18.8
2022-08-21T08:24:18.645Z,18.89
2022-08-21T08:33:46.881Z,19.08
2022-08-21T08:43:24.762Z,19.12
2022-08-21T08:53:02.725Z,19.37
2022-08-21T09:02:40.972Z,19.91
2022-08-21T09:12:19.158Z,19.93
2022-08-21T09:21:59.759Z,20.64
2022-08-21T09:31:38.646Z,21.14
2022-08-21T09:41:19.127Z,21.01
2022-08-21T09:50:57.194Z,22.47
2022-08-21T10:00:47.309Z,21.93
2022-08-21T10:10:30.086Z,22.96
2022-08-21T10:20:13.793Z,24.35
2022-08-21T10:29:57.301Z,26.09
2022-08-21T10:39:36.883Z,26.25
2022-08-21T10:49:14.699Z,26.23
2022-08-21T10:58:44.784Z,26.79
2022-08-21T11:08:27.561Z,27.87
2022-08-21T11:18:12.238Z,27.76
2022-08-21T11:27:52.688Z,28.04
2022-08-21T11:37:37.265Z,30.06
2022-08-21T11:47:15.737Z,28.07
2022-08-21T11:56:36.057Z,26.8
2022-08-21T12:06:07.367Z,25.51
2022-08-21T12:15:36.415Z,26.77
2022-08-21T12:25:10.190Z,26.27
2022-08-21T12:35:00.843Z,25.9
2022-08-21T12:44:55.649Z,25.23
2022-08-21T12:54:39.486Z,29.33
2022-08-21T13:04:20.813Z,30.56
2022-08-21T13:14:01.192Z,31.45
2022-08-21T13:23:20.633Z,30.66
2022-08-21T13:32:52.896Z,29.66
2022-08-21T13:42:35.274Z,29.35
2022-08-21T13:52:16.430Z,28.6
2022-08-21T14:01:49.642Z,28.92
2022-08-21T14:11:37.603Z,30.15
2022-08-21T14:21:06.796Z,27.17
2022-08-21T14:30:46.410Z,28.91
2022-08-21T14:40:26.870Z,28.92
2022-08-21T14:50:08.500Z,29.23
2022-08-21T14:59:48.812Z,29.1
2022-08-21T15:09:21.477Z,29.89
2022-08-21T15:18:57.029Z,28.15
2022-08-21T15:28:26.056Z,28.04
2022-08-21T15:37:55.307Z,26.72
2022-08-21T15:47:28.593Z,27.39
2022-08-21T15:57:05.196Z,27.4
2022-08-21T16:06:53.345Z,25.87
2022-08-21T16:16:14.431Z,25.53
2022-08-21T16:25:49.229Z,25.34
2022-08-21T16:35:24.429Z,24.54
2022-08-21T16:45:00.385Z,24.27
2022-08-21T16:54:37.200Z,24.02
2022-08-21T17:04:13.897Z,23.6
2022-08-21T17:13:50.429Z,23.79
2022-08-21T17:23:27.298Z,23.59
2022-08-21T17:33:04.093Z,23.12
2022-08-21T17:42:40.861Z,22.6
2022-08-21T17:52:16.819Z,22.28
2022-08-21T18:01:53.435Z,22.08
2022-08-21T18:11:30.740Z,21.74
2022-08-21T18:21:06.703Z,20.8
2022-08-21T18:30:42.904Z,20.01
2022-08-21T18:40:19.222Z,19.77
2022-08-21T18:49:55.361Z,19.14
2022-08-21T18:59:31.028Z,18.71
2022-08-21T19:09:07.321Z,18.44
2022-08-21T19:18:44.053Z,17.86
2022-08-21T19:28:20.548Z,17.48
2022-08-21T19:37:57.140Z,17.04
2022-08-21T19:47:33.224Z,16.77
2022-08-21T19:57:10.013Z,16.49
2022-08-21T20:06:46.473Z,16.36
2022-08-21T20:16:23.128Z,16.04
2022-08-21T20:25:59.804Z,15.87
2022-08-21T20:35:36.497Z,15.76
2022-08-21T20:45:13.671Z,15.6
2022-08-21T21:04:27.224Z,15.17
2022-08-21T21:14:05.132Z,14.74
2022-08-21T21:23:41.194Z,14.47
2022-08-21T21:33:17.947Z,14.46
2022-08-21T21:42:54.995Z,14.23
2022-08-21T21:52:31.879Z,14.07
2022-08-21T22:02:09.012Z,13.91
2022-08-21T22:11:45.864Z,13.84
2022-08-21T22:21:24.035Z,13.73
2022-08-21T22:30:59.745Z,13.61
2022-08-21T22:40:36.500Z,13.3
2022-08-21T22:50:13.522Z,13.19
2022-08-21T22:59:50.803Z,13.1
2022-08-21T23:09:28.115Z,12.98
2022-08-21T23:19:05.087Z,12.96
2022-08-21T23:28:43.731Z,12.95
2022-08-21T23:38:19.502Z,12.7
2022-08-21T23:47:55.894Z,12.58
2022-08-21T23:57:33.040Z,12.51
